Flight Track Log - Related Links

Times and Time Zones

All times are in EDT time to prevent confusion due to time zone crossing. See the DAL1624 flight status page for this flight to view local times or setup timezone preferences in your user account.

Time Position Orientation Groundspeed Altitude Reporting Facility
EDT Latitude Longitude Course Direction KTS MPH feet Rate Location/Type
Sun 08:36:41 PM 44.8667 -93.1833 119° Southeast 170 196 1,900  Level Minneapolis TRACON
Sun 08:37:41 PM 44.8500 -93.1000 106° East 246 283 3,700 2,400 Climbing Minneapolis TRACON
Sun 08:38:41 PM 44.8000 -93.0167 130° Southeast 280 322 6,700 2,628 Climbing Minneapolis TRACON
Sun 08:39:42 PM 44.7775 -92.9228 109° East 294 338 9,000 2,195 Climbing Minneapolis Center
Sun 08:40:00 PM 44.7441 -92.4796 115° Southeast  Level Estimated
Sun 08:40:44 PM 44.7411 -92.8044 113° Southeast 327 376 11,200  Level Minneapolis Center
Sun 08:41:00 PM 44.7089 -92.2946 117° Southeast  Level Estimated
Sun 08:41:45 PM 44.6886 -92.6358 114° Southeast 393 452 13,300  Level Minneapolis Center
Sun 08:42:00 PM 44.6734 -92.1099 119° Southeast  Level Estimated
Sun 08:42:47 PM 44.6417 -92.4850 114° Southeast 416 479 15,600  Level Minneapolis Center
Sun 08:43:49 PM 44.5928 -92.3317 114° Southeast 428 493 18,100 2,129 Climbing Minneapolis Center
Sun 08:44:51 PM 44.5383 -92.1778 116° Southeast 435 501 20,000 1,839 Climbing Minneapolis Center
Sun 08:45:53 PM 44.4656 -92.0356 126° Southeast 449 517 21,900 1,694 Climbing Minneapolis Center
Sun 08:46:55 PM 44.3892 -91.8919 127° Southeast 457 526 23,500 1,500 Climbing Minneapolis Center
Sun 08:47:57 PM 44.3219 -91.7322 120° Southeast 479 551 25,000 1,659 Climbing Minneapolis Center
Sun 08:48:58 PM 44.2486 -91.5344 117° Southeast 481 554 26,900 1,707 Climbing Minneapolis Center
Sun 08:50:00 PM 44.1856 -91.3694 118° Southeast 481 554 28,500 1,548 Climbing Minneapolis Center
Sun 08:51:02 PM 44.1208 -91.2050 119° Southeast 481 554 30,100 1,210 Climbing Minneapolis Center
Sun 08:52:04 PM 44.0589 -91.0444 118° Southeast 478 550 31,000 435 Climbing Minneapolis Center
Sun 08:53:06 PM 43.9969 -90.8847 118° Southeast 475 547 31,000  Level Minneapolis Center
Sun 08:54:08 PM 43.9350 -90.7225 118° Southeast 475 547 31,000  Level Minneapolis Center
Sun 08:55:10 PM 43.8878 -90.5344 109° East 476 548 31,000  Level Minneapolis Center
Sun 08:56:12 PM 43.8533 -90.3572 105° East 477 549 31,000  Level Minneapolis Center
Sun 08:57:14 PM 43.8178 -90.1808 106° East 477 549 31,000  Level Minneapolis Center
Sun 08:58:16 PM 43.7817 -90.0028 106° East 478 550 31,000  Level Minneapolis Center
Sun 08:58:56 PM 43.7567 -89.8600 104° East 479 551 31,000  Level Chicago Center
Sun 08:59:58 PM 43.7200 -89.6831 106° East 479 551 31,000  Level Chicago Center
Sun 09:01:00 PM 43.6850 -89.5064 105° East 480 552 31,000  Level Chicago Center
Sun 09:02:02 PM 43.6483 -89.3289 106° East 480 552 31,000  Level Chicago Center
Sun 09:03:04 PM 43.6119 -89.1522 106° East 480 552 31,000  Level Chicago Center
Sun 09:04:06 PM 43.5667 -88.9389 106° East 484 557 31,000  Level Chicago Center
Sun 09:05:08 PM 43.5294 -88.7628 106° East 482 555 31,000  Level Chicago Center
Sun 09:06:10 PM 43.4872 -88.5864 108° East 492 566 31,000  Level Chicago Center
Sun 09:07:11 PM 43.4539 -88.4164 105° East 480 552 31,000  Level Chicago Center
Sun 09:08:13 PM 43.4133 -88.2197 106° East 472 543 31,000  Level Chicago Center
Sun 09:09:15 PM 43.3753 -88.0436 107° East 477 549 31,000  Level Chicago Center
Sun 09:10:17 PM 43.3367 -87.8675 107° East 478 550 31,000  Level Chicago Center
Sun 09:11:19 PM 43.2983 -87.6919 107° East 479 551 31,000  Level Chicago Center
Sun 09:12:21 PM 43.2594 -87.5178 107° East 480 552 31,000  Level Chicago Center
Sun 09:13:22 PM 43.2167 -87.3314 107° East 480 552 31,000  Level Chicago Center
Sun 09:14:24 PM 43.1775 -87.1561 107° East 478 550 31,000  Level Chicago Center
Sun 09:15:26 PM 43.1383 -86.9833 107° East 477 549 31,000  Level Chicago Center
Sun 09:16:28 PM 43.0917 -86.7767 107° East 475 547 31,000  Level Chicago Center
Sun 09:17:30 PM 43.0506 -86.6036 108° East 476 548 31,000  Level Chicago Center
Sun 09:18:32 PM 43.0108 -86.4331 108° East 475 547 31,000  Level Chicago Center
Sun 09:19:33 PM 42.9703 -86.2619 108° East 475 547 31,000  Level Chicago Center
Sun 09:20:35 PM 42.9289 -86.0922 108° East 478 550 31,000  Level Chicago Center
Sun 09:21:37 PM 42.8817 -85.8886 107° East 484 557 31,000 97 Level Chicago Center
Sun 09:22:39 PM 42.8408 -85.7181 108° East 482 555 31,200 677 Climbing Chicago Center
Sun 09:23:41 PM 42.8003 -85.5472 108° East 481 554 32,400 878 Climbing Chicago Center
Sun 09:24:42 PM 42.7481 -85.3819 113° Southeast 481 554 33,000 293 Climbing Chicago Center
Sun 09:25:44 PM 42.6914 -85.2186 115° Southeast 479 551 33,000  Level Chicago Center
Sun 09:26:46 PM 42.6214 -85.0244 116° Southeast 480 552 33,000  Level Chicago Center
Sun 09:27:48 PM 42.5636 -84.8622 116° Southeast 479 551 33,000  Level Chicago Center
Sun 09:28:50 PM 42.5058 -84.7000 116° Southeast 480 552 33,000  Level Chicago Center
Sun 09:29:55 PM 42.4500 -84.5458 116° Southeast 479 551 33,000  Level Cleveland Center
Sun 09:30:56 PM 42.3817 -84.3503 115° Southeast 479 551 33,000  Level Cleveland Center
Sun 09:31:58 PM 42.3253 -84.1889 115° Southeast 479 551 33,000  Level Cleveland Center
Sun 09:32:59 PM 42.2683 -84.0292 116° Southeast 477 549 33,000  Level Cleveland Center
Sun 09:34:01 PM 42.2122 -83.8706 115° Southeast 476 548 33,000  Level Cleveland Center
Sun 09:35:02 PM 42.1550 -83.7131 116° Southeast 476 548 33,000  Level Cleveland Center
Sun 09:36:04 PM 42.0897 -83.5297 116° Southeast 476 548 33,000  Level Cleveland Center
Sun 09:37:05 PM 42.0319 -83.3692 116° Southeast 475 547 33,000  Level Cleveland Center
Sun 09:38:07 PM 41.9736 -83.2094 116° Southeast 475 547 33,000  Level Cleveland Center
Sun 09:39:08 PM 41.9164 -83.0533 116° Southeast 474 545 33,000  Level Cleveland Center
Sun 09:40:09 PM 41.8589 -82.8942 116° Southeast 474 545 33,000  Level Cleveland Center
Sun 09:41:11 PM 41.8019 -82.7336 115° Southeast 477 549 33,000  Level Cleveland Center
Sun 09:42:12 PM 41.7453 -82.5744 115° Southeast 477 549 33,000  Level Cleveland Center
Sun 09:43:14 PM 41.6875 -82.4158 116° Southeast 477 549 33,000  Level Cleveland Center
Sun 09:44:15 PM 41.6256 -82.2428 116° Southeast 477 549 33,000  Level Cleveland Center
Sun 09:45:16 PM 41.5683 -82.0817 115° Southeast 477 549 33,000  Level Cleveland Center
Sun 09:46:18 PM 41.5092 -81.9219 116° Southeast 477 549 33,000  Level Cleveland Center
Sun 09:47:19 PM 41.4500 -81.7606 116° Southeast 477 549 33,000  Level Cleveland Center
Sun 09:48:20 PM 41.3897 -81.5961 116° Southeast 477 549 33,000  Level Cleveland Center
Sun 09:49:22 PM 41.3231 -81.4167 116° Southeast 477 549 33,000  Level Cleveland Center
Sun 09:50:23 PM 41.2697 -81.2761 117° Southeast 471 542 33,000  Level Cleveland Center
Sun 09:51:24 PM 41.2100 -81.1175 117° Southeast 473 544 33,000  Level Cleveland Center
Sun 09:52:26 PM 41.1497 -80.9606 117° Southeast 473 544 33,000  Level Cleveland Center
Sun 09:53:27 PM 41.0883 -80.7944 116° Southeast 472 543 33,000  Level Cleveland Center
Sun 09:54:28 PM 41.0281 -80.6392 117° Southeast 473 544 33,000  Level Cleveland Center
Sun 09:55:30 PM 40.9697 -80.4850 117° Southeast 472 543 33,000  Level Cleveland Center
Sun 09:56:31 PM 40.9097 -80.3308 117° Southeast 472 543 33,000  Level Cleveland Center
Sun 09:57:32 PM 40.8486 -80.1717 117° Southeast 472 543 33,000  Level Cleveland Center
Sun 09:58:33 PM 40.7892 -80.0200 117° Southeast 471 542 33,000  Level Cleveland Center
Sun 09:59:34 PM 40.7175 -79.8353 117° Southeast 473 544 33,000  Level Cleveland Center
Sun 10:00:36 PM 40.6561 -79.6822 118° Southeast 473 544 33,000  Level Cleveland Center
Sun 10:01:37 PM 40.5972 -79.5292 117° Southeast 471 542 33,000  Level Cleveland Center
Sun 10:02:38 PM 40.5653 -79.3603 104° East 472 543 33,000  Level Cleveland Center
Sun 10:03:39 PM 40.5369 -79.2025 103° East 470 541 33,000  Level Cleveland Center
Sun 10:04:41 PM 40.5086 -79.0358 103° East 471 542 33,000  Level Cleveland Center
Sun 10:05:42 PM 40.4725 -78.8375 103° East 473 544 33,000  Level Cleveland Center
Sun 10:06:43 PM 40.4431 -78.6697 103° East 476 548 33,000 -541 Level Cleveland Center
Sun 10:07:44 PM 40.4133 -78.5039 103° East 475 547 31,900 -1,033 Descending Cleveland Center
Sun 10:08:45 PM 40.3828 -78.3378 104° East 475 547 30,900 -1,756 Descending Cleveland Center
Sun 10:09:47 PM 40.3531 -78.1733 103° East 474 545 28,300 -2,537 Descending Cleveland Center
Sun 10:10:48 PM 40.3233 -78.0092 103° East 472 543 25,700 -1,623 Descending Cleveland Center
Sun 10:11:49 PM 40.3036 -77.8489 99° East 454 522 25,000 -344 Descending Cleveland Center
Sun 10:12:50 PM 40.2861 -77.6833 98° East 452 520 25,000 -689 Level Cleveland Center
Sun 10:13:51 PM 40.2700 -77.5169 97° East 455 524 23,600 -2,016 Descending Cleveland Center
Sun 10:14:52 PM 40.2503 -77.3264 98° East 442 509 20,900 -2,308 Descending Cleveland Center
Sun 10:16:01 PM 40.2306 -77.1550 99° East 428 493 18,600 -1,442 Descending New York Center
Sun 10:17:01 PM 40.2189 -77.0206 96° East 416 479 17,800 -1,050 Descending New York Center
Sun 10:18:01 PM 40.2025 -76.8589 98° East 408 470 16,500 -1,150 Descending New York Center
Sun 10:19:01 PM 40.1867 -76.7161 98° East 408 470 15,500 -1,050 Descending New York Center
Sun 10:20:01 PM 40.1728 -76.5789 98° East 397 457 14,400 -1,050 Descending New York Center
Sun 10:21:01 PM 40.1600 -76.4556 98° East 385 443 13,400 -1,050 Descending New York Center
Sun 10:22:01 PM 40.1442 -76.3078 98° East 369 425 12,300 -1,050 Descending New York Center
Sun 10:23:01 PM 40.1314 -76.1789 97° East 369 425 11,300 -950 Descending New York Center
Sun 10:24:01 PM 40.1183 -76.0531 98° East 357 411 10,400 -750 Descending New York Center
Sun 10:25:01 PM 40.1058 -75.9572 100° East 320 368 9,800 -750 Descending New York Center
Sun 10:26:01 PM 40.0850 -75.8606 106° East 283 326 8,900 -750 Descending New York Center
Sun 10:27:01 PM 40.0194 -75.7853 139° Southeast 270 311 8,300 -850 Descending New York Center
Sun 10:28:01 PM 39.9658 -75.7247 139° Southeast 284 327 7,200 -1,350 Descending New York Center
Sun 10:29:01 PM 39.9022 -75.6497 138° Southeast 284 327 5,600 -1,300 Descending New York Center
Sun 10:30:01 PM 39.8544 -75.5922 137° Southeast 272 313 4,600 -1,119 Descending New York Center
Sun 10:30:59 PM 39.8333 -75.5167 110° East 208 239 3,400 -1,016 Descending Philadelphia TRACON
Sun 10:32:05 PM 39.8333 -75.4333 90° East 170 196 2,500 -800 Descending Philadelphia TRACON
Sun 10:32:59 PM 39.8333 -75.3833 90° East 162 186 1,800 -800 Descending Philadelphia TRACON
Sun 10:34:05 PM 39.8500 -75.3333 67° East 129 148 900 -762 Descending Philadelphia TRACON
Sun 10:35:05 PM 39.8667 -75.2833 67° East 136 157 200 -700 Descending Philadelphia TRACON

Login

Don't have an account? Register now (free) for customized features, flight alerts, and more!